Time;durP1;ratioP1;P1;durP2;ratioP2;P2;SDS_P1;SDS_P2;PMS_P1;PMS_P2;Temp;Humidity;BMP_temperature;BMP_pressure;BME280_temperature;BME280_humidity;BME280_pressure;Samples;Min_cycle;Max_cycle;Signal;HPM_P1;HPM_P2
2023/03/08 00:01:42;;;;;;;18.20;7.47;;;;;;;;;;4312483;28;10000153;-46
2023/03/08 00:04:15;;;;;;;17.88;7.60;;;;;;;;;;4984314;28;20030;-46
2023/03/08 00:06:43;;;;;;;20.23;7.20;;;;;;;;;;5000066;28;20041;-46
2023/03/08 00:09:11;;;;;;;17.73;6.50;;;;;;;;;;4985201;28;20041;-47
2023/03/08 00:11:38;;;;;;;18.00;7.10;;;;;;;;;;5003926;28;20073;-44
2023/03/08 00:14:06;;;;;;;20.45;7.63;;;;;;;;;;4981843;28;20140;-46
2023/03/08 00:16:34;;;;;;;19.08;7.55;;;;;;;;;;5004392;28;20103;-45
2023/03/08 00:19:02;;;;;;;19.63;7.65;;;;;;;;;;4990088;28;20130;-46
2023/03/08 00:21:32;;;;;;;19.93;8.03;;;;;;;;;;4995259;28;20050;-45
2023/03/08 00:24:00;;;;;;;19.45;7.57;;;;;;;;;;5005914;28;20251;-45
2023/03/08 00:26:27;;;;;;;20.63;7.78;;;;;;;;;;4990434;28;20132;-46
2023/03/08 00:28:55;;;;;;;21.08;8.35;;;;;;;;;;5006220;28;20435;-46
2023/03/08 00:31:23;;;;;;;20.15;7.90;;;;;;;;;;4991641;28;20530;-46
2023/03/08 00:33:52;;;;;;;20.20;8.33;;;;;;;;;;5006861;28;20045;-45
2023/03/08 00:36:20;;;;;;;22.25;7.85;;;;;;;;;;4978865;28;20597;-47
2023/03/08 00:38:51;;;;;;;19.48;8.65;;;;;;;;;;4998942;28;20045;-46
2023/03/08 00:41:18;;;;;;;20.60;8.40;;;;;;;;;;4982547;28;20060;-45
2023/03/08 00:43:46;;;;;;;22.13;8.82;;;;;;;;;;4973817;28;20338;-48
2023/03/08 00:46:14;;;;;;;19.97;8.37;;;;;;;;;;5008656;28;20041;-46
2023/03/08 00:48:42;;;;;;;21.98;8.25;;;;;;;;;;4986055;28;20081;-46
2023/03/08 00:51:12;;;;;;;20.75;8.13;;;;;;;;;;4985509;28;20203;-45
2023/03/08 00:53:39;;;;;;;17.17;7.75;;;;;;;;;;5009638;28;20120;-49
2023/03/08 00:56:08;;;;;;;17.92;7.03;;;;;;;;;;4989426;28;20621;-45
2023/03/08 00:58:36;;;;;;;19.77;7.60;;;;;;;;;;5008194;28;20128;-45
2023/03/08 01:01:04;;;;;;;18.23;7.88;;;;;;;;;;4993724;28;20086;-45
2023/03/08 01:03:32;;;;;;;17.30;7.57;;;;;;;;;;4992750;28;20037;-47
2023/03/08 01:06:04;;;;;;;18.08;6.60;;;;;;;;;;4989781;28;20104;-45
2023/03/08 01:08:32;;;;;;;19.00;7.80;;;;;;;;;;4996181;28;20064;-45
2023/03/08 01:11:00;;;;;;;20.43;8.30;;;;;;;;;;4987741;28;20073;-44
2023/03/08 01:13:31;;;;;;;21.20;7.72;;;;;;;;;;4996557;28;20111;-45
2023/03/08 01:15:59;;;;;;;21.88;8.40;;;;;;;;;;4998993;28;20124;-44
2023/03/08 01:18:27;;;;;;;20.17;7.63;;;;;;;;;;4993716;28;20133;-44
2023/03/08 01:20:56;;;;;;;19.33;7.55;;;;;;;;;;5004962;28;20530;-47
2023/03/08 01:23:24;;;;;;;20.10;8.03;;;;;;;;;;4991403;28;20127;-45
2023/03/08 01:25:57;;;;;;;20.52;8.13;;;;;;;;;;4990590;28;20037;-44
2023/03/08 01:28:25;;;;;;;18.00;8.15;;;;;;;;;;4994778;28;20121;-44
2023/03/08 01:31:00;;;;;;;21.33;8.40;;;;;;;;;;5005003;28;20118;-46
2023/03/08 01:33:28;;;;;;;18.90;7.57;;;;;;;;;;4995455;28;20128;-45
2023/03/08 01:35:55;;;;;;;17.20;7.13;;;;;;;;;;5004051;28;20041;-45
2023/03/08 01:38:24;;;;;;;19.48;8.23;;;;;;;;;;4988854;28;20414;-45
2023/03/08 01:40:57;;;;;;;20.42;8.15;;;;;;;;;;5002775;28;20073;-45
2023/03/08 01:43:25;;;;;;;20.25;7.93;;;;;;;;;;4993623;28;20140;-44
2023/03/08 01:46:10;;;;;;;21.38;8.18;;;;;;;;;;4997291;28;20498;-44
2023/03/08 01:48:40;;;;;;;20.67;8.70;;;;;;;;;;5006651;28;20473;-44
2023/03/08 01:51:10;;;;;;;23.00;8.52;;;;;;;;;;4983760;28;20136;-45
2023/03/08 01:53:39;;;;;;;20.20;7.55;;;;;;;;;;5010008;28;20526;-44
2023/03/08 01:56:08;;;;;;;19.92;7.95;;;;;;;;;;4980973;28;20079;-44
2023/03/08 01:58:36;;;;;;;20.38;7.57;;;;;;;;;;5003825;28;20070;-44
2023/03/08 02:01:04;;;;;;;23.37;8.43;;;;;;;;;;4982972;28;20041;-44
2023/03/08 02:03:33;;;;;;;19.30;7.68;;;;;;;;;;5004726;28;20052;-45
2023/03/08 02:06:02;;;;;;;18.75;7.03;;;;;;;;;;4986829;28;20037;-45
2023/03/08 02:08:29;;;;;;;25.05;8.80;;;;;;;;;;4994305;28;20168;-50
2023/03/08 02:10:57;;;;;;;23.58;8.75;;;;;;;;;;4989617;28;20486;-46
2023/03/08 02:13:31;;;;;;;23.20;9.50;;;;;;;;;;4992038;28;20492;-45
2023/03/08 02:16:00;;;;;;;21.75;8.60;;;;;;;;;;5001303;28;20053;-45
2023/03/08 02:18:28;;;;;;;20.88;8.63;;;;;;;;;;4978721;28;20303;-46
2023/03/08 02:20:57;;;;;;;25.75;9.88;;;;;;;;;;4994602;28;20566;-46
2023/03/08 02:23:25;;;;;;;27.45;9.95;;;;;;;;;;4981105;28;20442;-45
2023/03/08 02:25:55;;;;;;;21.90;9.57;;;;;;;;;;4968923;28;20509;-45
2023/03/08 02:28:24;;;;;;;22.92;9.77;;;;;;;;;;4994977;28;20132;-47
2023/03/08 02:30:52;;;;;;;22.15;8.65;;;;;;;;;;4982645;28;20049;-43
2023/03/08 02:33:20;;;;;;;22.10;9.32;;;;;;;;;;4998538;28;20048;-45
2023/03/08 02:35:49;;;;;;;23.88;9.93;;;;;;;;;;5009639;28;20406;-48
2023/03/08 02:38:17;;;;;;;26.50;9.93;;;;;;;;;;4979124;28;20550;-48
2023/03/08 02:40:47;;;;;;;26.75;9.98;;;;;;;;;;5003740;28;20080;-44
2023/03/08 02:43:15;;;;;;;23.48;10.38;;;;;;;;;;4994669;28;20471;-47
2023/03/08 02:45:42;;;;;;;23.70;10.32;;;;;;;;;;4983329;28;20403;-46
2023/03/08 02:48:11;;;;;;;26.08;10.63;;;;;;;;;;4983333;28;20041;-46
2023/03/08 02:50:39;;;;;;;25.10;9.23;;;;;;;;;;5008576;28;20049;-45
2023/03/08 02:53:09;;;;;;;25.88;10.02;;;;;;;;;;4999509;28;20658;-44
2023/03/08 02:55:37;;;;;;;24.40;9.77;;;;;;;;;;4981741;28;20447;-46
2023/03/08 02:58:07;;;;;;;26.48;10.52;;;;;;;;;;5000712;28;20121;-45
2023/03/08 03:00:37;;;;;;;28.73;11.38;;;;;;;;;;4993623;28;20108;-45
2023/03/08 03:03:05;;;;;;;27.50;10.70;;;;;;;;;;5002849;28;20045;-47
2023/03/08 03:05:32;;;;;;;25.67;11.18;;;;;;;;;;5006017;28;20037;-45
2023/03/08 03:08:00;;;;;;;29.55;11.10;;;;;;;;;;4984348;28;20069;-44
2023/03/08 03:10:28;;;;;;;28.42;12.00;;;;;;;;;;5004960;28;20120;-44
2023/03/08 03:12:55;;;;;;;29.88;11.85;;;;;;;;;;4995655;28;20041;-44
2023/03/08 03:15:24;;;;;;;25.47;9.73;;;;;;;;;;4975208;28;20476;-44
2023/03/08 03:17:53;;;;;;;28.30;10.98;;;;;;;;;;5004469;28;20076;-46
2023/03/08 03:20:21;;;;;;;26.20;10.70;;;;;;;;;;4980995;28;20085;-44
2023/03/08 03:22:48;;;;;;;25.58;10.52;;;;;;;;;;5000761;28;20069;-44
2023/03/08 03:25:16;;;;;;;27.92;12.00;;;;;;;;;;4988404;28;20454;-46
2023/03/08 03:27:44;;;;;;;27.20;10.53;;;;;;;;;;4996223;28;20470;-46
2023/03/08 03:30:12;;;;;;;28.15;11.80;;;;;;;;;;4993201;28;20117;-46
2023/03/08 03:32:41;;;;;;;26.77;11.02;;;;;;;;;;5001421;28;20121;-44
2023/03/08 03:35:09;;;;;;;24.90;9.35;;;;;;;;;;4965289;28;20480;-44
2023/03/08 03:37:36;;;;;;;32.08;11.27;;;;;;;;;;4987196;28;20128;-44
2023/03/08 03:40:05;;;;;;;28.17;11.27;;;;;;;;;;4983873;28;20037;-45
2023/03/08 03:42:33;;;;;;;27.08;10.40;;;;;;;;;;4986422;28;20434;-45
2023/03/08 03:45:00;;;;;;;25.58;10.13;;;;;;;;;;5006676;28;20120;-44
2023/03/08 03:47:28;;;;;;;26.48;10.52;;;;;;;;;;4990503;28;20029;-44
2023/03/08 03:49:57;;;;;;;26.90;10.02;;;;;;;;;;4981586;28;20603;-46
2023/03/08 03:52:24;;;;;;;27.53;10.30;;;;;;;;;;5003807;28;20136;-44
2023/03/08 03:54:53;;;;;;;26.85;10.60;;;;;;;;;;4986507;28;20098;-44
2023/03/08 03:57:20;;;;;;;24.67;9.23;;;;;;;;;;4997462;28;20043;-46
2023/03/08 03:59:48;;;;;;;23.17;9.23;;;;;;;;;;4960102;28;20052;-45
2023/03/08 04:02:16;;;;;;;25.27;9.95;;;;;;;;;;4994654;28;20513;-44
2023/03/08 04:04:43;;;;;;;26.63;9.97;;;;;;;;;;5001933;28;20132;-44
2023/03/08 04:07:12;;;;;;;26.42;10.27;;;;;;;;;;4972108;28;20129;-45
2023/03/08 04:09:40;;;;;;;25.08;9.68;;;;;;;;;;5001728;28;20072;-44
2023/03/08 04:12:08;;;;;;;28.52;10.43;;;;;;;;;;4992058;28;20515;-46
2023/03/08 04:14:36;;;;;;;27.52;10.60;;;;;;;;;;4984936;28;20124;-46
2023/03/08 04:17:04;;;;;;;23.97;9.63;;;;;;;;;;4997509;28;20101;-47
2023/03/08 04:19:31;;;;;;;28.35;10.10;;;;;;;;;;5003868;28;20435;-44
2023/03/08 04:21:59;;;;;;;26.23;10.40;;;;;;;;;;4994147;28;20687;-46
2023/03/08 04:24:29;;;;;;;25.52;9.13;;;;;;;;;;4956859;28;20129;-44
2023/03/08 04:26:58;;;;;;;24.33;9.20;;;;;;;;;;4970734;28;20491;-45
2023/03/08 04:29:26;;;;;;;27.90;9.33;;;;;;;;;;4998231;28;20042;-44
2023/03/08 04:31:58;;;;;;;25.52;8.85;;;;;;;;;;4995555;28;20335;-46
2023/03/08 04:34:26;;;;;;;23.00;7.30;;;;;;;;;;5004548;28;20501;-45
2023/03/08 04:36:55;;;;;;;23.20;8.23;;;;;;;;;;4983111;28;20087;-45
2023/03/08 04:39:22;;;;;;;22.63;8.32;;;;;;;;;;5000241;28;20121;-47
2023/03/08 04:41:51;;;;;;;20.17;7.23;;;;;;;;;;4996838;28;20069;-45
2023/03/08 04:44:19;;;;;;;17.35;7.15;;;;;;;;;;4987352;28;20503;-44
2023/03/08 04:46:46;;;;;;;22.70;7.53;;;;;;;;;;4995511;28;20038;-46
2023/03/08 04:49:14;;;;;;;23.58;8.43;;;;;;;;;;5002774;28;20858;-44
2023/03/08 04:51:42;;;;;;;25.90;8.10;;;;;;;;;;4976186;28;20130;-46
2023/03/08 04:54:13;;;;;;;26.70;8.80;;;;;;;;;;5002232;28;20077;-48
2023/03/08 04:56:41;;;;;;;28.10;8.73;;;;;;;;;;4991891;28;20064;-44
2023/03/08 04:59:10;;;;;;;26.85;9.98;;;;;;;;;;4962391;28;20601;-44
2023/03/08 05:01:38;;;;;;;25.23;8.68;;;;;;;;;;4995291;28;20129;-44
2023/03/08 05:04:06;;;;;;;29.55;9.40;;;;;;;;;;4985964;28;20049;-44
2023/03/08 05:06:34;;;;;;;27.97;10.10;;;;;;;;;;4981584;28;20895;-45
2023/03/08 05:09:02;;;;;;;29.70;9.75;;;;;;;;;;4996486;28;20124;-44
2023/03/08 05:11:30;;;;;;;27.75;9.70;;;;;;;;;;4990489;28;20564;-49
2023/03/08 05:13:58;;;;;;;29.70;10.38;;;;;;;;;;4994392;28;20052;-44
2023/03/08 05:16:27;;;;;;;28.85;10.02;;;;;;;;;;5002815;28;20048;-45
2023/03/08 05:18:55;;;;;;;28.70;10.30;;;;;;;;;;4992914;28;20523;-45
2023/03/08 05:21:23;;;;;;;29.48;10.77;;;;;;;;;;5002095;28;20129;-45
2023/03/08 05:23:58;;;;;;;30.65;10.70;;;;;;;;;;4999470;28;20042;-44
2023/03/08 05:26:26;;;;;;;31.80;10.93;;;;;;;;;;4976352;28;20132;-44
2023/03/08 05:28:54;;;;;;;30.58;11.52;;;;;;;;;;5001340;28;20128;-45
2023/03/08 05:31:21;;;;;;;30.37;10.60;;;;;;;;;;4991439;28;20411;-44
2023/03/08 05:33:52;;;;;;;30.77;12.45;;;;;;;;;;4995001;28;20046;-45
2023/03/08 05:36:20;;;;;;;33.40;11.38;;;;;;;;;;5000173;28;20052;-45
2023/03/08 05:38:48;;;;;;;33.92;11.80;;;;;;;;;;4995737;28;20042;-45
2023/03/08 05:41:16;;;;;;;33.72;11.00;;;;;;;;;;4993866;28;20124;-44
2023/03/08 05:43:43;;;;;;;28.27;10.57;;;;;;;;;;4991646;28;20136;-44
2023/03/08 05:46:12;;;;;;;31.75;11.00;;;;;;;;;;4986785;28;20407;-45
2023/03/08 05:48:39;;;;;;;30.33;10.98;;;;;;;;;;4997311;28;20046;-44
2023/03/08 05:51:09;;;;;;;33.58;11.75;;;;;;;;;;4986393;28;20064;-47
2023/03/08 05:53:37;;;;;;;30.10;10.77;;;;;;;;;;5005816;28;20152;-44
2023/03/08 05:56:09;;;;;;;32.83;11.73;;;;;;;;;;4978133;28;20508;-45
2023/03/08 05:58:37;;;;;;;27.90;10.85;;;;;;;;;;5002797;28;20535;-45
2023/03/08 06:01:11;;;;;;;35.13;11.57;;;;;;;;;;4984836;28;20683;-44
2023/03/08 06:03:39;;;;;;;35.40;11.27;;;;;;;;;;4974578;28;20528;-46
2023/03/08 06:06:08;;;;;;;30.25;9.38;;;;;;;;;;4992344;28;20046;-45
2023/03/08 06:08:39;;;;;;;35.00;12.20;;;;;;;;;;5010541;28;20045;-44
2023/03/08 06:11:08;;;;;;;30.98;10.95;;;;;;;;;;4988386;28;20044;-47
2023/03/08 06:13:36;;;;;;;32.70;11.13;;;;;;;;;;4998815;28;20480;-45
2023/03/08 06:16:04;;;;;;;30.73;11.20;;;;;;;;;;4996643;28;20099;-45
2023/03/08 06:18:33;;;;;;;31.67;12.15;;;;;;;;;;5003386;28;20042;-45
2023/03/08 06:21:01;;;;;;;35.73;12.27;;;;;;;;;;4992000;28;20044;-45
2023/03/08 06:23:31;;;;;;;30.85;11.70;;;;;;;;;;5005809;28;20123;-44
2023/03/08 06:25:59;;;;;;;29.63;10.93;;;;;;;;;;4991093;28;20827;-44
2023/03/08 06:28:27;;;;;;;33.55;11.07;;;;;;;;;;4979549;28;20034;-45
2023/03/08 06:30:55;;;;;;;32.78;11.57;;;;;;;;;;4991469;28;20095;-44
2023/03/08 06:33:23;;;;;;;32.50;10.90;;;;;;;;;;4994742;28;20096;-44
2023/03/08 06:35:57;;;;;;;31.08;11.75;;;;;;;;;;5003119;28;20065;-44
2023/03/08 06:38:26;;;;;;;30.55;10.32;;;;;;;;;;4977122;28;20091;-45
2023/03/08 06:40:57;;;;;;;29.38;10.20;;;;;;;;;;5009700;28;20238;-45
2023/03/08 06:43:25;;;;;;;33.13;10.55;;;;;;;;;;4981129;28;20567;-47
2023/03/08 06:45:54;;;;;;;30.77;9.43;;;;;;;;;;5006142;28;20120;-45
2023/03/08 06:48:21;;;;;;;28.20;8.88;;;;;;;;;;4987449;28;20429;-46
2023/03/08 06:50:49;;;;;;;31.00;10.88;;;;;;;;;;5006251;28;20055;-45
2023/03/08 06:53:16;;;;;;;32.20;10.25;;;;;;;;;;5000432;28;20136;-46
2023/03/08 06:55:49;;;;;;;27.08;9.25;;;;;;;;;;5007652;28;21232;-44
2023/03/08 06:58:19;;;;;;;27.07;9.37;;;;;;;;;;4992452;28;20100;-44
2023/03/08 07:00:46;;;;;;;26.88;9.43;;;;;;;;;;4989530;28;20036;-44
2023/03/08 07:03:14;;;;;;;31.35;10.07;;;;;;;;;;5004784;28;20124;-47
2023/03/08 07:05:42;;;;;;;25.83;9.30;;;;;;;;;;4984229;28;20511;-46
2023/03/08 07:08:09;;;;;;;25.48;9.30;;;;;;;;;;4997711;28;20713;-48
2023/03/08 07:10:37;;;;;;;27.10;9.47;;;;;;;;;;5006610;28;20073;-44
2023/03/08 07:13:05;;;;;;;24.23;9.43;;;;;;;;;;4988434;28;20467;-44
2023/03/08 07:15:34;;;;;;;26.85;8.82;;;;;;;;;;4994443;28;20052;-45
2023/03/08 07:18:01;;;;;;;27.00;9.02;;;;;;;;;;4992640;28;20128;-46
2023/03/08 07:20:29;;;;;;;27.55;9.38;;;;;;;;;;4999151;28;20033;-44
2023/03/08 07:23:00;;;;;;;24.83;9.10;;;;;;;;;;4997115;28;20121;-45
2023/03/08 07:25:28;;;;;;;26.70;10.43;;;;;;;;;;5005695;28;20788;-44
2023/03/08 07:27:55;;;;;;;22.92;8.95;;;;;;;;;;4991298;28;20569;-44
2023/03/08 07:30:32;;;;;;;25.17;8.43;;;;;;;;;;4996942;28;20276;-44
2023/03/08 07:33:01;;;;;;;29.60;10.25;;;;;;;;;;4997923;28;20037;-44
2023/03/08 07:35:29;;;;;;;24.83;9.90;;;;;;;;;;4997424;28;20041;-44
2023/03/08 07:38:01;;;;;;;25.08;8.65;;;;;;;;;;5004064;28;20128;-44
2023/03/08 07:40:29;;;;;;;26.60;9.90;;;;;;;;;;4998401;28;20041;-44
2023/03/08 07:42:59;;;;;;;23.58;8.85;;;;;;;;;;4998714;28;20167;-46
2023/03/08 07:45:27;;;;;;;24.98;8.65;;;;;;;;;;5003873;28;20045;-45
2023/03/08 07:47:55;;;;;;;23.67;9.10;;;;;;;;;;4988847;28;20114;-45
2023/03/08 07:50:24;;;;;;;23.10;9.23;;;;;;;;;;5005063;28;20041;-44
2023/03/08 07:52:52;;;;;;;24.10;9.27;;;;;;;;;;4976107;28;20707;-44
2023/03/08 07:55:20;;;;;;;23.30;9.48;;;;;;;;;;4967748;28;20038;-46
2023/03/08 07:57:47;;;;;;;25.63;9.23;;;;;;;;;;4977096;28;20057;-45
2023/03/08 08:00:15;;;;;;;23.57;8.30;;;;;;;;;;4966728;28;22519;-45
2023/03/08 08:02:43;;;;;;;21.13;8.05;;;;;;;;;;4989835;28;20125;-46
2023/03/08 08:05:15;;;;;;;21.65;8.32;;;;;;;;;;4959130;28;20374;-44
2023/03/08 08:07:45;;;;;;;17.95;6.72;;;;;;;;;;4994039;28;20045;-45
2023/03/08 08:10:13;;;;;;;17.83;6.90;;;;;;;;;;4954036;28;20470;-45
2023/03/08 08:12:41;;;;;;;18.93;6.40;;;;;;;;;;4966262;28;20175;-45
2023/03/08 08:15:09;;;;;;;20.42;7.05;;;;;;;;;;4972457;28;20033;-44
2023/03/08 08:17:37;;;;;;;20.05;7.50;;;;;;;;;;4984433;28;20038;-44
2023/03/08 08:20:06;;;;;;;18.20;6.53;;;;;;;;;;4976391;28;20049;-44
2023/03/08 08:22:35;;;;;;;17.88;6.65;;;;;;;;;;4976940;28;20046;-44
2023/03/08 08:25:04;;;;;;;14.27;5.93;;;;;;;;;;4973391;28;20038;-44
2023/03/08 08:27:33;;;;;;;14.68;5.88;;;;;;;;;;4987489;28;20069;-46
2023/03/08 08:30:00;;;;;;;14.73;5.50;;;;;;;;;;4973713;28;20084;-46
2023/03/08 08:32:28;;;;;;;13.73;5.00;;;;;;;;;;4978023;28;20054;-45
2023/03/08 08:34:56;;;;;;;16.65;5.53;;;;;;;;;;4966309;28;20128;-45
2023/03/08 08:37:26;;;;;;;13.83;5.20;;;;;;;;;;4969694;28;20677;-44
2023/03/08 08:39:54;;;;;;;16.55;5.18;;;;;;;;;;4965291;28;20117;-44
2023/03/08 08:42:23;;;;;;;13.52;5.28;;;;;;;;;;4984841;28;20076;-45
2023/03/08 08:44:55;;;;;;;15.40;4.93;;;;;;;;;;4978290;28;20547;-45
2023/03/08 08:47:23;;;;;;;12.77;4.68;;;;;;;;;;4974806;28;20046;-45
2023/03/08 08:49:51;;;;;;;16.27;5.10;;;;;;;;;;4954866;28;20046;-45
2023/03/08 08:52:19;;;;;;;12.60;4.22;;;;;;;;;;4985666;28;20088;-45
2023/03/08 08:54:51;;;;;;;14.77;5.05;;;;;;;;;;4980779;28;20032;-46
2023/03/08 08:57:18;;;;;;;12.90;4.55;;;;;;;;;;5004623;28;20130;-45
2023/03/08 08:59:48;;;;;;;11.57;4.45;;;;;;;;;;4987242;28;20124;-48
2023/03/08 09:02:16;;;;;;;13.20;4.40;;;;;;;;;;4993902;28;20121;-47
2023/03/08 09:04:44;;;;;;;12.07;4.10;;;;;;;;;;4998558;28;20054;-47
2023/03/08 09:07:12;;;;;;;13.05;4.57;;;;;;;;;;4994469;28;20048;-46
2023/03/08 09:09:39;;;;;;;12.45;4.40;;;;;;;;;;4994541;28;20551;-46
2023/03/08 09:12:07;;;;;;;10.40;4.20;;;;;;;;;;4988365;28;20068;-46
2023/03/08 09:14:35;;;;;;;14.83;4.70;;;;;;;;;;4995509;28;20870;-45
2023/03/08 09:17:05;;;;;;;15.57;4.07;;;;;;;;;;4297777;28;10021513;-44
2023/03/08 09:19:35;;;;;;;13.50;5.28;;;;;;;;;;4995928;28;20045;-45
2023/03/08 09:22:04;;;;;;;12.52;4.40;;;;;;;;;;5000276;28;20080;-45
2023/03/08 09:24:32;;;;;;;14.07;4.88;;;;;;;;;;4983602;28;20036;-47
2023/03/08 09:27:00;;;;;;;14.93;5.33;;;;;;;;;;4989995;28;20325;-45
2023/03/08 09:29:27;;;;;;;13.55;4.63;;;;;;;;;;4980275;28;20049;-45
2023/03/08 09:31:55;;;;;;;13.80;5.30;;;;;;;;;;4993682;28;20630;-45
2023/03/08 09:34:27;;;;;;;14.90;5.03;;;;;;;;;;4997342;28;20114;-44
2023/03/08 09:36:55;;;;;;;12.95;5.07;;;;;;;;;;4612120;28;10000349;-46
2023/03/08 09:39:29;;;;;;;14.40;4.37;;;;;;;;;;4975569;28;20448;-46
2023/03/08 09:41:58;;;;;;;13.70;4.70;;;;;;;;;;4981131;28;20065;-46
2023/03/08 09:44:44;;;;;;;12.93;4.38;;;;;;;;;;4984767;28;20037;-45
2023/03/08 09:47:15;;;;;;;14.02;4.55;;;;;;;;;;4979479;28;20116;-46
2023/03/08 09:49:45;;;;;;;11.85;3.85;;;;;;;;;;4981999;28;20049;-45
2023/03/08 09:52:16;;;;;;;15.17;6.13;;;;;;;;;;4987730;28;20124;-45
2023/03/08 09:54:45;;;;;;;12.25;4.07;;;;;;;;;;5000006;28;20132;-47
2023/03/08 09:57:16;;;;;;;12.68;4.10;;;;;;;;;;4986116;28;21715;-45
2023/03/08 09:59:45;;;;;;;12.45;4.38;;;;;;;;;;4999459;28;20052;-45
2023/03/08 10:02:19;;;;;;;12.85;4.38;;;;;;;;;;4996558;28;20032;-46
2023/03/08 10:04:55;;;;;;;12.53;4.33;;;;;;;;;;5001619;28;20044;-49
2023/03/08 10:07:45;;;;;;;11.48;3.90;;;;;;;;;;4996636;28;20132;-47
2023/03/08 10:10:20;;;;;;;12.00;3.97;;;;;;;;;;4998374;28;20041;-47
2023/03/08 10:12:56;;;;;;;12.50;3.88;;;;;;;;;;5000216;28;20176;-49
2023/03/08 10:15:25;;;;;;;12.27;4.32;;;;;;;;;;4993620;28;20041;-47
2023/03/08 10:17:55;;;;;;;11.60;3.93;;;;;;;;;;4983890;28;21242;-47
2023/03/08 10:20:26;;;;;;;10.90;3.30;;;;;;;;;;4974917;28;20108;-46
2023/03/08 10:22:56;;;;;;;12.00;4.00;;;;;;;;;;4999180;28;20573;-45
2023/03/08 10:25:25;;;;;;;12.05;4.15;;;;;;;;;;4991490;28;20107;-45
2023/03/08 10:27:54;;;;;;;11.60;3.92;;;;;;;;;;4999361;28;20120;-46
2023/03/08 10:30:24;;;;;;;14.77;4.97;;;;;;;;;;4996026;28;20122;-45
2023/03/08 10:32:53;;;;;;;14.63;4.30;;;;;;;;;;4988080;28;20113;-46
2023/03/08 10:35:32;;;;;;;10.40;3.55;;;;;;;;;;4991949;28;20047;-48
2023/03/08 10:38:00;;;;;;;12.68;3.70;;;;;;;;;;5005959;28;20655;-45
2023/03/08 10:40:28;;;;;;;13.50;4.15;;;;;;;;;;4990088;28;20127;-45
2023/03/08 10:42:59;;;;;;;13.03;4.83;;;;;;;;;;5004888;28;20041;-45
2023/03/08 10:45:32;;;;;;;13.48;4.30;;;;;;;;;;5007109;28;20125;-47
2023/03/08 10:48:01;;;;;;;12.30;4.38;;;;;;;;;;4990055;28;20040;-46
2023/03/08 10:50:29;;;;;;;11.85;3.72;;;;;;;;;;5005867;28;20141;-45
2023/03/08 10:53:09;;;;;;;16.05;4.65;;;;;;;;;;4995192;28;20049;-47
2023/03/08 10:55:43;;;;;;;12.70;4.47;;;;;;;;;;4998123;28;20173;-46
2023/03/08 10:58:25;;;;;;;12.27;4.35;;;;;;;;;;4999428;28;20044;-45
2023/03/08 11:00:54;;;;;;;12.50;4.35;;;;;;;;;;4986402;28;20051;-44
2023/03/08 11:03:23;;;;;;;12.35;4.65;;;;;;;;;;5005300;28;20149;-45
2023/03/08 11:05:51;;;;;;;11.27;4.53;;;;;;;;;;4989370;28;20332;-45
2023/03/08 11:08:22;;;;;;;16.20;5.57;;;;;;;;;;4991767;28;20040;-46
2023/03/08 11:10:59;;;;;;;11.43;4.63;;;;;;;;;;5007750;28;20091;-45
2023/03/08 11:13:28;;;;;;;13.52;4.65;;;;;;;;;;4984684;28;20129;-47
2023/03/08 11:16:01;;;;;;;14.07;4.53;;;;;;;;;;4992988;28;20148;-47
2023/03/08 11:18:36;;;;;;;13.57;4.47;;;;;;;;;;4997353;28;20056;-45
2023/03/08 11:21:06;;;;;;;12.67;4.90;;;;;;;;;;4983497;28;21553;-46
2023/03/08 11:23:38;;;;;;;12.50;4.80;;;;;;;;;;5007247;28;20498;-47
2023/03/08 11:26:12;;;;;;;13.50;5.25;;;;;;;;;;4988038;28;20073;-44
2023/03/08 11:28:53;;;;;;;13.05;5.07;;;;;;;;;;5003008;28;20103;-47
2023/03/08 11:31:25;;;;;;;11.20;4.90;;;;;;;;;;4996361;28;20103;-44
2023/03/08 11:34:07;;;;;;;14.13;5.23;;;;;;;;;;4989719;28;20052;-44
2023/03/08 11:36:43;;;;;;;13.40;6.22;;;;;;;;;;4278095;28;10021518;-46
2023/03/08 11:39:17;;;;;;;12.75;4.88;;;;;;;;;;4973100;28;20723;-46
2023/03/08 11:41:51;;;;;;;13.43;5.13;;;;;;;;;;4983884;28;20717;-44
2023/03/08 11:44:27;;;;;;;14.53;5.57;;;;;;;;;;5005959;28;20128;-49
2023/03/08 11:47:00;;;;;;;12.73;4.85;;;;;;;;;;5000172;28;20514;-46
2023/03/08 11:49:39;;;;;;;13.38;4.53;;;;;;;;;;4991201;28;20034;-46
2023/03/08 11:52:10;;;;;;;13.25;4.95;;;;;;;;;;5004112;28;20472;-45
2023/03/08 11:54:45;;;;;;;15.85;4.90;;;;;;;;;;4996469;28;20134;-45
2023/03/08 11:57:14;;;;;;;13.97;4.97;;;;;;;;;;5000310;28;20037;-45
2023/03/08 11:59:42;;;;;;;14.50;5.07;;;;;;;;;;4993741;28;20128;-45
2023/03/08 12:02:16;;;;;;;12.68;5.35;;;;;;;;;;5002661;28;20072;-49
2023/03/08 12:04:47;;;;;;;15.60;5.82;;;;;;;;;;4984350;28;20029;-45
2023/03/08 12:07:17;;;;;;;14.52;5.13;;;;;;;;;;4994488;28;20146;-44
2023/03/08 12:09:52;;;;;;;12.40;4.73;;;;;;;;;;4993830;28;21268;-47
2023/03/08 12:12:24;;;;;;;14.45;5.30;;;;;;;;;;5003788;28;20544;-44
2023/03/08 12:14:55;;;;;;;12.00;4.97;;;;;;;;;;4994351;28;20085;-45
2023/03/08 12:17:24;;;;;;;13.50;5.20;;;;;;;;;;5004426;28;20526;-47
2023/03/08 12:19:56;;;;;;;13.00;4.65;;;;;;;;;;4999072;28;20431;-45
2023/03/08 12:22:34;;;;;;;12.30;4.80;;;;;;;;;;4983353;28;20084;-44
2023/03/08 12:25:07;;;;;;;11.65;4.75;;;;;;;;;;4995787;28;20491;-46
2023/03/08 12:27:39;;;;;;;9.23;3.70;;;;;;;;;;4977824;28;20124;-45
2023/03/08 12:30:13;;;;;;;11.25;4.70;;;;;;;;;;5009855;28;20045;-45
2023/03/08 12:32:42;;;;;;;10.85;3.85;;;;;;;;;;4984578;28;20491;-44
2023/03/08 12:35:24;;;;;;;10.90;3.70;;;;;;;;;;4981771;28;20283;-48
2023/03/08 12:37:55;;;;;;;11.10;4.40;;;;;;;;;;5007784;28;20042;-46
2023/03/08 12:40:29;;;;;;;10.05;3.78;;;;;;;;;;5006304;28;20511;-47
2023/03/08 12:43:04;;;;;;;10.65;4.03;;;;;;;;;;4985328;28;20038;-47
2023/03/08 12:45:31;;;;;;;8.95;3.50;;;;;;;;;;4977520;28;20537;-45
2023/03/08 12:48:17;;;;;;;10.27;3.93;;;;;;;;;;4989851;28;20065;-46
2023/03/08 12:50:46;;;;;;;10.10;3.50;;;;;;;;;;5004678;28;20041;-44
2023/03/08 12:53:21;;;;;;;9.70;3.72;;;;;;;;;;4991264;28;20488;-46
2023/03/08 12:56:00;;;;;;;8.40;3.50;;;;;;;;;;4995520;28;20045;-47
2023/03/08 12:58:28;;;;;;;10.70;3.72;;;;;;;;;;4997524;28;20072;-45
2023/03/08 13:01:00;;;;;;;9.40;3.13;;;;;;;;;;4981779;28;20979;-46
2023/03/08 13:03:29;;;;;;;8.65;3.08;;;;;;;;;;4996196;28;20533;-47
2023/03/08 13:05:57;;;;;;;8.65;3.50;;;;;;;;;;4989035;28;20644;-45
2023/03/08 13:08:32;;;;;;;10.07;3.30;;;;;;;;;;5007937;28;20128;-45
2023/03/08 13:11:07;;;;;;;8.68;3.25;;;;;;;;;;5002634;28;20069;-45
2023/03/08 13:13:39;;;;;;;9.47;3.13;;;;;;;;;;4996057;28;20475;-45
2023/03/08 13:16:17;;;;;;;7.55;2.75;;;;;;;;;;4994945;28;20051;-48
2023/03/08 13:18:46;;;;;;;9.13;3.58;;;;;;;;;;5023248;28;20041;-45
2023/03/08 13:21:20;;;;;;;8.63;2.90;;;;;;;;;;4986003;28;20037;-46
2023/03/08 13:23:49;;;;;;;8.95;3.30;;;;;;;;;;5010061;28;20041;-45
2023/03/08 13:26:35;;;;;;;8.70;3.63;;;;;;;;;;4996649;28;20137;-45
2023/03/08 13:29:18;;;;;;;9.23;3.63;;;;;;;;;;4993582;28;20049;-45
2023/03/08 13:31:46;;;;;;;9.20;3.42;;;;;;;;;;4998791;28;20361;-46
2023/03/08 13:34:24;;;;;;;8.65;3.30;;;;;;;;;;4993455;28;20041;-46
2023/03/08 13:36:52;;;;;;;9.13;3.33;;;;;;;;;;4989363;28;20057;-48
2023/03/08 13:39:21;;;;;;;9.00;3.73;;;;;;;;;;5003337;28;20040;-46
2023/03/08 13:41:50;;;;;;;10.13;3.80;;;;;;;;;;4995454;28;20461;-45
2023/03/08 13:44:21;;;;;;;8.98;3.38;;;;;;;;;;4998049;28;20144;-47
2023/03/08 13:46:49;;;;;;;9.98;3.58;;;;;;;;;;5006590;28;20042;-45
2023/03/08 13:49:19;;;;;;;8.88;3.50;;;;;;;;;;5012855;28;20103;-46
2023/03/08 13:51:49;;;;;;;9.20;3.40;;;;;;;;;;4649300;28;10000081;-46
2023/03/08 13:54:28;;;;;;;8.32;3.42;;;;;;;;;;4967484;28;20156;-45
2023/03/08 13:56:57;;;;;;;9.43;3.80;;;;;;;;;;4999226;28;20041;-46
2023/03/08 13:59:25;;;;;;;9.18;3.30;;;;;;;;;;4987276;28;20057;-45
2023/03/08 14:01:53;;;;;;;11.68;3.90;;;;;;;;;;5001634;28;20048;-45
2023/03/08 14:04:23;;;;;;;9.67;3.40;;;;;;;;;;4991592;28;20038;-45
2023/03/08 14:06:52;;;;;;;9.35;3.58;;;;;;;;;;4987996;28;20126;-45
2023/03/08 14:09:20;;;;;;;8.70;3.28;;;;;;;;;;5000662;28;20045;-45
2023/03/08 14:11:56;;;;;;;8.40;3.50;;;;;;;;;;4987951;28;20128;-46
2023/03/08 14:14:27;;;;;;;8.07;3.15;;;;;;;;;;4995631;28;20045;-49
2023/03/08 14:16:55;;;;;;;11.20;3.03;;;;;;;;;;5001474;28;20042;-45
2023/03/08 14:19:24;;;;;;;8.37;3.50;;;;;;;;;;4640962;28;9999832;-45
2023/03/08 14:21:54;;;;;;;8.80;3.38;;;;;;;;;;5001064;28;20695;-45
2023/03/08 14:24:22;;;;;;;11.02;3.92;;;;;;;;;;4998400;28;20129;-46
2023/03/08 14:26:54;;;;;;;10.90;3.20;;;;;;;;;;4994395;28;20139;-45
2023/03/08 14:29:23;;;;;;;9.48;3.90;;;;;;;;;;4986084;28;20045;-48
2023/03/08 14:32:00;;;;;;;9.57;3.60;;;;;;;;;;4992127;28;20099;-48
2023/03/08 14:34:32;;;;;;;8.90;3.17;;;;;;;;;;5002488;28;20045;-45
2023/03/08 14:37:01;;;;;;;8.98;3.63;;;;;;;;;;4987088;28;20147;-46
2023/03/08 14:39:30;;;;;;;10.93;4.03;;;;;;;;;;5002662;28;20033;-49
2023/03/08 14:41:57;;;;;;;9.82;3.58;;;;;;;;;;4985492;28;20042;-46
2023/03/08 14:44:28;;;;;;;9.60;3.60;;;;;;;;;;5002816;28;20033;-49